createdAt,value
2019-03-18T00:00:15.378Z,4.47
2019-03-18T00:02:43.834Z,5.10
2019-03-18T00:05:12.426Z,5.83
2019-03-18T00:07:41.026Z,6.13
2019-03-18T00:10:09.720Z,3.70
2019-03-18T00:12:38.183Z,5.03
2019-03-18T00:15:11.017Z,6.90
2019-03-18T00:17:39.514Z,6.50
2019-03-18T00:20:11.504Z,5.20
2019-03-18T00:22:40.055Z,4.37
2019-03-18T00:25:13.932Z,5.73
2019-03-18T00:27:42.543Z,5.23
2019-03-18T00:30:18.694Z,5.77
2019-03-18T00:32:47.219Z,7.60
2019-03-18T00:35:15.681Z,6.83
2019-03-18T00:37:44.237Z,6.17
2019-03-18T00:40:16.899Z,5.37
2019-03-18T00:42:45.601Z,5.23
2019-03-18T00:45:15.632Z,5.90
2019-03-18T00:47:44.493Z,7.43
2019-03-18T00:50:14.675Z,5.90
2019-03-18T00:52:43.371Z,5.80
2019-03-18T00:55:12.281Z,10.97
2019-03-18T00:57:40.875Z,7.43
2019-03-18T01:00:14.597Z,4.73
2019-03-18T01:02:43.135Z,5.33
2019-03-18T01:05:13.143Z,4.40
2019-03-18T01:07:41.765Z,4.70
2019-03-18T01:10:14.916Z,4.57
2019-03-18T01:12:44.397Z,4.50
2019-03-18T01:15:13.454Z,4.53
2019-03-18T01:17:41.995Z,4.50
2019-03-18T01:20:12.290Z,4.83
2019-03-18T01:22:40.921Z,4.37
2019-03-18T01:25:15.874Z,2.87
2019-03-18T01:27:44.775Z,4.50
2019-03-18T01:30:14.369Z,3.83
2019-03-18T01:32:43.162Z,3.73
2019-03-18T01:35:11.960Z,3.20
2019-03-18T01:37:40.536Z,3.87
2019-03-18T01:40:13.888Z,4.37
2019-03-18T01:42:43.301Z,3.43
2019-03-18T01:45:12.307Z,5.40
2019-03-18T01:47:40.973Z,4.50
2019-03-18T01:50:15.903Z,4.63
2019-03-18T01:52:44.423Z,4.90
2019-03-18T01:55:13.583Z,3.00
2019-03-18T01:57:42.121Z,4.40
2019-03-18T02:00:12.519Z,5.33
2019-03-18T02:02:41.168Z,4.33
2019-03-18T02:05:10.572Z,5.77
2019-03-18T02:07:39.353Z,4.23
2019-03-18T02:10:11.174Z,4.27
2019-03-18T02:12:39.623Z,5.47
2019-03-18T02:15:10.613Z,4.67
2019-03-18T02:17:42.598Z,6.20
2019-03-18T02:20:13.093Z,4.90
2019-03-18T02:22:41.718Z,6.57
2019-03-18T02:25:10.899Z,5.43
2019-03-18T02:27:39.437Z,5.17
2019-03-18T02:30:11.173Z,5.10
2019-03-18T02:32:39.727Z,6.77
2019-03-18T02:35:08.326Z,4.87
2019-03-18T02:37:36.790Z,5.50
2019-03-18T02:40:07.698Z,8.47
2019-03-18T02:42:36.225Z,5.77
2019-03-18T02:45:07.060Z,5.73
2019-03-18T02:47:35.660Z,5.50
2019-03-18T02:50:06.246Z,6.35
2019-03-18T02:52:34.759Z,5.67
2019-03-18T02:55:03.524Z,5.93
2019-03-18T02:57:31.979Z,6.17
2019-03-18T03:00:00.508Z,6.50
2019-03-18T03:02:29.144Z,7.73
2019-03-18T03:04:57.616Z,7.33
2019-03-18T03:07:26.090Z,5.33
2019-03-18T03:09:54.650Z,5.33
2019-03-18T03:12:23.111Z,7.13
2019-03-18T03:14:51.553Z,6.20
2019-03-18T03:17:21.834Z,6.47
2019-03-18T03:19:50.328Z,7.30
2019-03-18T03:22:18.785Z,5.87
2019-03-18T03:24:47.311Z,7.13
2019-03-18T03:27:15.856Z,6.93
2019-03-18T03:29:44.354Z,5.93
2019-03-18T03:32:13.077Z,6.75
2019-03-18T03:34:41.521Z,7.27
2019-03-18T03:37:10.143Z,7.63
2019-03-18T03:39:38.730Z,7.30
2019-03-18T03:42:07.568Z,15.60
2019-03-18T03:44:36.025Z,7.93
2019-03-18T03:47:04.693Z,6.60
2019-03-18T03:49:34.139Z,6.90
2019-03-18T03:52:02.616Z,6.60
2019-03-18T03:54:31.231Z,8.37
2019-03-18T03:56:59.833Z,7.87
2019-03-18T03:59:28.489Z,7.60
2019-03-18T04:01:57.150Z,7.80
2019-03-18T04:04:25.720Z,7.53
2019-03-18T04:06:54.309Z,7.67
2019-03-18T04:09:23.144Z,6.00
2019-03-18T04:11:51.688Z,5.97
2019-03-18T04:14:20.214Z,6.03
2019-03-18T04:17:00.627Z,5.83
2019-03-18T04:19:20.013Z,7.90
2019-03-18T04:21:50.637Z,7.70
2019-03-18T04:24:18.778Z,5.70
2019-03-18T04:26:47.485Z,6.50
2019-03-18T04:29:16.111Z,7.00
2019-03-18T04:31:44.710Z,7.33
2019-03-18T04:34:13.173Z,5.83
2019-03-18T04:36:41.626Z,7.13
2019-03-18T04:39:10.268Z,6.23
2019-03-18T04:41:38.824Z,9.40
2019-03-18T04:44:08.268Z,7.03
2019-03-18T04:46:36.810Z,7.97
2019-03-18T04:49:06.180Z,6.47
2019-03-18T04:51:34.643Z,7.80
2019-03-18T04:54:04.247Z,6.23
2019-03-18T04:56:32.707Z,6.10
2019-03-18T04:59:01.176Z,6.37
2019-03-18T05:01:29.776Z,4.87
2019-03-18T05:03:58.239Z,2.87
2019-03-18T05:06:26.728Z,3.17
2019-03-18T05:08:55.366Z,2.40
2019-03-18T05:11:23.826Z,2.87
2019-03-18T05:13:52.336Z,2.53
2019-03-18T05:16:21.040Z,2.97
2019-03-18T05:18:49.515Z,3.33
2019-03-18T05:21:17.967Z,2.77
2019-03-18T05:23:46.495Z,4.97
2019-03-18T05:26:15.005Z,2.63
2019-03-18T05:28:43.537Z,4.67
2019-03-18T05:31:12.351Z,3.20
2019-03-18T05:33:40.974Z,3.87
2019-03-18T05:36:09.496Z,3.13
2019-03-18T05:38:38.120Z,3.10
2019-03-18T05:41:06.582Z,3.17
2019-03-18T05:43:35.044Z,2.77
2019-03-18T05:46:03.674Z,2.80
2019-03-18T05:48:32.174Z,4.50
2019-03-18T05:51:00.703Z,5.17
2019-03-18T05:53:29.233Z,4.90
2019-03-18T05:55:57.719Z,4.43
2019-03-18T05:58:27.242Z,6.53
2019-03-18T06:00:55.828Z,3.87
2019-03-18T06:03:24.263Z,3.90
2019-03-18T06:05:52.814Z,4.07
2019-03-18T06:08:21.271Z,4.80
2019-03-18T06:10:49.720Z,6.00
2019-03-18T06:13:18.353Z,3.90
2019-03-18T06:15:46.804Z,4.23
2019-03-18T06:18:15.325Z,4.67
2019-03-18T06:20:43.912Z,6.23
2019-03-18T06:23:12.363Z,4.80
2019-03-18T06:25:40.817Z,3.93
2019-03-18T06:28:09.473Z,4.40
2019-03-18T06:30:37.943Z,4.40
2019-03-18T06:33:06.403Z,4.60
2019-03-18T06:35:35.964Z,3.77
2019-03-18T06:38:04.667Z,5.00
2019-03-18T06:40:33.119Z,4.73
2019-03-18T06:43:01.678Z,4.30
2019-03-18T06:45:30.138Z,5.67
2019-03-18T06:48:04.660Z,5.83
2019-03-18T06:50:28.867Z,3.45
2019-03-18T06:53:02.348Z,9.43
2019-03-18T06:55:30.820Z,3.63
2019-03-18T06:57:59.351Z,4.53
2019-03-18T07:00:27.806Z,3.47
2019-03-18T07:02:56.268Z,6.13
2019-03-18T07:05:25.254Z,5.10
2019-03-18T07:07:53.696Z,2.93
2019-03-18T07:10:23.126Z,2.77
2019-03-18T07:12:51.681Z,4.10
2019-03-18T07:15:20.192Z,3.37
2019-03-18T07:17:48.854Z,3.20
2019-03-18T07:20:17.446Z,3.20
2019-03-18T07:22:45.946Z,4.40
2019-03-18T07:25:14.680Z,3.00
2019-03-18T07:27:43.211Z,4.50
2019-03-18T07:30:15.129Z,3.17
2019-03-18T07:32:43.917Z,3.47
2019-03-18T07:35:12.652Z,2.80
2019-03-18T07:37:41.234Z,3.43
2019-03-18T07:40:14.039Z,4.07
2019-03-18T07:42:42.580Z,3.80
2019-03-18T07:45:12.077Z,5.33
2019-03-18T07:47:40.795Z,3.37
2019-03-18T07:50:11.588Z,4.33
2019-03-18T07:52:40.128Z,3.43
2019-03-18T07:55:09.100Z,10.57
2019-03-18T07:57:37.607Z,3.53
2019-03-18T08:00:09.297Z,3.87
2019-03-18T08:02:37.931Z,3.40
2019-03-18T08:05:08.545Z,2.80
2019-03-18T08:07:39.085Z,3.47
2019-03-18T08:10:14.910Z,4.57
2019-03-18T08:12:43.461Z,3.60
2019-03-18T08:15:12.869Z,3.93
2019-03-18T08:17:41.433Z,3.50
2019-03-18T08:20:11.967Z,4.17
2019-03-18T08:22:40.513Z,2.33
2019-03-18T08:25:09.850Z,1.77
2019-03-18T08:27:38.489Z,3.80
2019-03-18T08:30:11.928Z,2.53
2019-03-18T08:32:40.482Z,1.60
2019-03-18T08:35:09.077Z,3.27
2019-03-18T08:37:37.629Z,3.10
2019-03-18T08:40:10.818Z,1.53
2019-03-18T08:42:39.318Z,2.37
2019-03-18T08:45:13.063Z,1.67
2019-03-18T08:47:41.806Z,1.27
2019-03-18T08:50:12.487Z,3.17
2019-03-18T08:52:41.366Z,2.40
2019-03-18T08:55:11.190Z,2.00
2019-03-18T08:57:39.711Z,3.13
2019-03-18T09:00:11.307Z,2.30
2019-03-18T09:02:40.143Z,2.67
2019-03-18T09:05:09.622Z,3.07
2019-03-18T09:07:38.253Z,1.90
2019-03-18T09:10:09.799Z,2.00
2019-03-18T09:12:38.270Z,1.83
2019-03-18T09:15:09.061Z,1.67
2019-03-18T09:17:37.660Z,1.93
2019-03-18T09:20:09.338Z,2.33
2019-03-18T09:22:38.836Z,1.20
2019-03-18T09:25:09.249Z,2.07
2019-03-18T09:27:37.784Z,2.20
2019-03-18T09:30:15.696Z,2.20
2019-03-18T09:32:44.181Z,1.87
2019-03-18T09:35:12.768Z,2.77
2019-03-18T09:37:41.385Z,1.87
2019-03-18T09:40:12.503Z,2.93
2019-03-18T09:42:41.025Z,1.50
2019-03-18T09:45:17.479Z,1.77
2019-03-18T09:47:46.058Z,1.80
2019-03-18T09:50:14.910Z,2.33
2019-03-18T09:52:43.524Z,2.73
2019-03-18T09:55:12.360Z,1.17
2019-03-18T09:57:40.836Z,1.47
2019-03-18T10:00:12.560Z,2.20
2019-03-18T10:02:41.078Z,2.33
2019-03-18T10:05:09.589Z,2.10
2019-03-18T10:07:38.308Z,1.97
2019-03-18T10:10:14.638Z,1.80
2019-03-18T10:12:44.240Z,1.60
2019-03-18T10:15:14.984Z,2.23
2019-03-18T10:17:43.425Z,2.10
2019-03-18T10:20:11.883Z,1.27
2019-03-18T10:22:40.531Z,2.50
2019-03-18T10:25:09.298Z,4.13
2019-03-18T10:27:38.061Z,1.17
2019-03-18T10:30:09.665Z,1.30
2019-03-18T10:32:39.235Z,2.67
2019-03-18T10:35:08.332Z,0.77
2019-03-18T10:37:37.182Z,1.27
2019-03-18T10:40:08.696Z,4.30
2019-03-18T10:42:37.148Z,1.50
2019-03-18T10:45:08.251Z,2.17
2019-03-18T10:47:36.704Z,2.07
2019-03-18T10:50:07.934Z,0.80
2019-03-18T10:52:36.749Z,3.00
2019-03-18T10:55:06.705Z,1.53
2019-03-18T10:57:35.167Z,2.77
2019-03-18T11:00:05.892Z,2.23
2019-03-18T11:02:34.377Z,1.97
2019-03-18T11:05:02.994Z,1.23
2019-03-18T11:07:31.634Z,2.60
2019-03-18T11:10:00.246Z,2.20
2019-03-18T11:12:28.676Z,2.53
2019-03-18T11:14:58.220Z,2.97
2019-03-18T11:17:26.700Z,1.00
2019-03-18T11:19:58.882Z,3.80
2019-03-18T11:22:25.714Z,1.67
2019-03-18T11:24:54.234Z,1.63
2019-03-18T11:27:22.694Z,1.07
2019-03-18T11:29:51.316Z,1.73
2019-03-18T11:32:19.768Z,0.90
2019-03-18T11:34:48.240Z,2.67
2019-03-18T11:37:16.884Z,2.10
2019-03-18T11:39:45.459Z,1.40
2019-03-18T11:42:13.913Z,1.50
2019-03-18T11:44:42.605Z,2.20
2019-03-18T11:47:12.140Z,1.60
2019-03-18T11:49:40.593Z,1.00
2019-03-18T11:52:09.242Z,3.10
2019-03-18T11:54:39.737Z,2.60
2019-03-18T11:57:08.331Z,1.43
2019-03-18T11:59:36.948Z,4.17
2019-03-18T12:02:05.747Z,2.73
2019-03-18T12:04:34.274Z,2.57
2019-03-18T12:07:02.845Z,1.20
2019-03-18T12:09:31.329Z,3.10
2019-03-18T12:11:59.855Z,1.53
2019-03-18T12:14:28.485Z,2.30
2019-03-18T12:16:56.965Z,1.33
2019-03-18T12:19:25.542Z,4.00
2019-03-18T12:21:54.144Z,2.50
2019-03-18T12:24:22.627Z,2.57
2019-03-18T12:26:51.059Z,1.53
2019-03-18T12:29:19.602Z,1.30
2019-03-18T12:31:48.156Z,1.30
2019-03-18T12:34:16.642Z,1.03
2019-03-18T12:36:45.250Z,2.17
2019-03-18T12:39:13.937Z,1.33
2019-03-18T12:41:42.419Z,1.77
2019-03-18T12:44:11.033Z,5.47
2019-03-18T12:46:39.481Z,2.17
2019-03-18T12:49:07.940Z,1.83
2019-03-18T12:51:36.592Z,2.13
2019-03-18T12:54:05.193Z,2.20
2019-03-18T12:56:33.637Z,4.27
2019-03-18T12:59:02.299Z,2.33
2019-03-18T13:01:30.794Z,2.63
2019-03-18T13:03:59.487Z,5.63
2019-03-18T13:06:28.106Z,2.13
2019-03-18T13:08:56.567Z,2.97
2019-03-18T13:11:25.019Z,1.60
2019-03-18T13:13:53.585Z,2.53
2019-03-18T13:16:22.056Z,2.30
2019-03-18T13:18:50.553Z,1.00
2019-03-18T13:21:19.140Z,2.90
2019-03-18T13:23:47.604Z,1.00
2019-03-18T13:26:16.165Z,1.73
2019-03-18T13:28:44.890Z,1.33
2019-03-18T13:31:13.382Z,1.67
2019-03-18T13:33:41.940Z,2.07
2019-03-18T13:36:10.462Z,1.00
2019-03-18T13:38:38.905Z,3.30
2019-03-18T13:41:07.361Z,1.20
2019-03-18T13:43:36.055Z,2.40
2019-03-18T13:46:04.552Z,2.60
2019-03-18T13:48:33.010Z,1.40
2019-03-18T13:51:01.658Z,1.10
2019-03-18T13:53:31.138Z,2.80
2019-03-18T13:55:59.620Z,2.03
2019-03-18T13:58:28.556Z,3.53
2019-03-18T14:00:57.008Z,2.73
2019-03-18T14:03:26.543Z,3.13
2019-03-18T14:05:55.149Z,1.77
2019-03-18T14:08:23.605Z,4.90
2019-03-18T14:10:52.057Z,2.53
2019-03-18T14:13:20.833Z,3.73
2019-03-18T14:15:49.299Z,5.20
2019-03-18T14:18:17.752Z,3.07
2019-03-18T14:20:46.401Z,4.00
2019-03-18T14:23:14.935Z,1.90
2019-03-18T14:25:45.497Z,4.17
2019-03-18T14:28:13.871Z,4.27
2019-03-18T14:30:42.333Z,2.40
2019-03-18T14:33:10.881Z,3.23
2019-03-18T14:35:39.441Z,4.30
2019-03-18T14:38:07.882Z,6.27
2019-03-18T14:40:36.394Z,3.27
2019-03-18T14:43:05.048Z,4.03
2019-03-18T14:45:33.548Z,2.80
2019-03-18T14:48:01.995Z,1.30
2019-03-18T14:50:30.654Z,4.20
2019-03-18T14:52:59.174Z,2.20
2019-03-18T14:55:27.640Z,2.10
2019-03-18T14:57:56.214Z,2.53
2019-03-18T15:00:30.744Z,4.97
2019-03-18T15:02:59.283Z,3.20
2019-03-18T15:05:27.807Z,2.63
2019-03-18T15:07:56.418Z,2.87
2019-03-18T15:10:27.406Z,5.37
2019-03-18T15:12:55.926Z,4.53
2019-03-18T15:15:24.527Z,4.60
2019-03-18T15:17:52.983Z,5.10
2019-03-18T15:20:26.603Z,5.40
2019-03-18T15:22:55.059Z,5.70
2019-03-18T15:25:28.300Z,8.03
2019-03-18T15:27:56.844Z,5.47
2019-03-18T15:30:25.369Z,8.37
2019-03-18T15:32:53.830Z,4.50
2019-03-18T15:35:22.471Z,10.50
2019-03-18T15:37:51.032Z,5.03
2019-03-18T15:40:22.537Z,3.47
2019-03-18T15:42:51.289Z,4.63
2019-03-18T15:45:21.080Z,5.20
2019-03-18T15:47:49.641Z,3.80
2019-03-18T15:50:25.223Z,3.60
2019-03-18T15:52:53.815Z,3.03
2019-03-18T15:55:24.067Z,4.73
2019-03-18T15:57:52.588Z,3.20
2019-03-18T16:00:23.020Z,3.30
2019-03-18T16:02:51.629Z,3.43
2019-03-18T16:05:20.225Z,3.53
2019-03-18T16:07:48.817Z,3.20
2019-03-18T16:10:19.448Z,4.67
2019-03-18T16:12:48.145Z,3.87
2019-03-18T16:15:18.330Z,3.83
2019-03-18T16:17:46.810Z,3.73
2019-03-18T16:20:24.263Z,4.17
2019-03-18T16:22:52.806Z,5.23
2019-03-18T16:25:21.389Z,5.40
2019-03-18T16:27:50.097Z,4.80
2019-03-18T16:30:20.100Z,5.27
2019-03-18T16:32:48.557Z,26.00
2019-03-18T16:35:17.776Z,13.37
2019-03-18T16:37:46.390Z,6.70
2019-03-18T16:40:19.847Z,5.77
2019-03-18T16:42:48.437Z,7.17
2019-03-18T16:45:17.841Z,6.50
2019-03-18T16:47:46.336Z,6.20
2019-03-18T16:50:19.377Z,7.93
2019-03-18T16:52:47.835Z,5.17
2019-03-18T16:55:16.320Z,5.20
2019-03-18T16:57:44.941Z,4.80
2019-03-18T17:00:21.117Z,4.77
2019-03-18T17:02:49.667Z,4.60
2019-03-18T17:05:18.272Z,5.73
2019-03-18T17:07:46.834Z,7.03
2019-03-18T17:10:16.242Z,6.83
2019-03-18T17:12:45.266Z,6.63
2019-03-18T17:15:15.160Z,5.37
2019-03-18T17:17:43.630Z,8.07
2019-03-18T17:20:15.425Z,8.70
2019-03-18T17:22:49.175Z,4.43
2019-03-18T17:25:19.222Z,7.23
2019-03-18T17:27:47.702Z,6.60
2019-03-18T17:30:18.531Z,6.60
2019-03-18T17:32:49.281Z,9.27
2019-03-18T17:35:17.808Z,7.53
2019-03-18T17:37:47.258Z,9.13
2019-03-18T17:40:16.942Z,7.40
2019-03-18T17:42:45.418Z,11.40
2019-03-18T17:45:18.476Z,8.30
2019-03-18T17:47:47.100Z,6.80
2019-03-18T17:50:23.212Z,7.33
2019-03-18T17:53:01.769Z,6.87
2019-03-18T17:55:22.372Z,7.70
2019-03-18T17:57:51.013Z,8.47
2019-03-18T18:00:23.911Z,13.60
2019-03-18T18:02:53.049Z,15.60
2019-03-18T18:05:21.485Z,13.33
2019-03-18T18:07:49.961Z,8.47
2019-03-18T18:10:19.114Z,6.57
2019-03-18T18:12:47.712Z,8.93
2019-03-18T18:15:16.173Z,8.83
2019-03-18T18:17:44.878Z,8.73
2019-03-18T18:20:14.728Z,6.40
2019-03-18T18:22:43.417Z,6.13
2019-03-18T18:25:13.129Z,7.73
2019-03-18T18:27:41.603Z,6.20
2019-03-18T18:30:12.712Z,5.83
2019-03-18T18:32:41.729Z,7.63
2019-03-18T18:35:11.334Z,6.40
2019-03-18T18:37:39.803Z,8.20
2019-03-18T18:40:19.184Z,10.53
2019-03-18T18:42:47.739Z,8.70
2019-03-18T18:45:16.332Z,6.40
2019-03-18T18:47:46.850Z,4.90
2019-03-18T18:50:16.317Z,7.13
2019-03-18T18:52:44.775Z,7.57
2019-03-18T18:55:16.416Z,7.63
2019-03-18T18:57:44.990Z,8.37
2019-03-18T19:00:17.431Z,8.20
2019-03-18T19:02:46.099Z,5.33
2019-03-18T19:05:15.840Z,6.97
2019-03-18T19:07:44.265Z,5.70
2019-03-18T19:10:16.970Z,4.67
2019-03-18T19:12:45.414Z,8.00
2019-03-18T19:15:27.366Z,7.67
2019-03-18T19:17:55.804Z,8.87
2019-03-18T19:20:24.334Z,8.63
2019-03-18T19:22:52.901Z,11.27
2019-03-18T19:25:21.344Z,7.97
2019-03-18T19:27:49.815Z,7.07
2019-03-18T19:30:19.633Z,9.57
2019-03-18T19:32:53.934Z,8.70
2019-03-18T19:35:22.540Z,5.83
2019-03-18T19:37:56.161Z,5.23
2019-03-18T19:40:25.255Z,8.13
2019-03-18T19:42:53.734Z,5.93
2019-03-18T19:45:22.257Z,6.13
2019-03-18T19:47:53.147Z,6.80
2019-03-18T19:50:32.243Z,8.13
2019-03-18T19:53:00.930Z,5.13
2019-03-18T19:55:29.385Z,6.90
2019-03-18T19:57:58.248Z,6.90
2019-03-18T20:00:29.090Z,5.63
2019-03-18T20:02:57.681Z,7.00
2019-03-18T20:05:26.317Z,6.37
2019-03-18T20:07:54.844Z,6.80
2019-03-18T20:10:23.541Z,6.40
2019-03-18T20:12:52.145Z,7.33
2019-03-18T20:15:21.044Z,8.37
2019-03-18T20:17:49.759Z,7.23
2019-03-18T20:20:22.597Z,19.40
2019-03-18T20:22:51.143Z,9.87
2019-03-18T20:25:21.467Z,11.70
2019-03-18T20:27:49.992Z,9.30
2019-03-18T20:30:22.361Z,6.23
2019-03-18T20:32:50.944Z,8.17
2019-03-18T20:35:21.651Z,7.73
2019-03-18T20:37:51.754Z,6.77
2019-03-18T20:40:20.595Z,8.17
2019-03-18T20:42:49.188Z,7.27
2019-03-18T20:45:22.305Z,7.17
2019-03-18T20:47:53.083Z,8.03
2019-03-18T20:50:22.768Z,8.33
2019-03-18T20:52:51.373Z,6.37
2019-03-18T20:55:20.037Z,7.57
2019-03-18T20:57:48.571Z,7.53
2019-03-18T21:00:21.858Z,6.33
2019-03-18T21:02:50.312Z,7.40
2019-03-18T21:05:18.909Z,9.37
2019-03-18T21:07:47.515Z,8.80
2019-03-18T21:10:17.024Z,4.43
2019-03-18T21:12:45.806Z,10.63
2019-03-18T21:15:18.434Z,6.80
2019-03-18T21:17:47.162Z,5.80
2019-03-18T21:20:19.843Z,7.00
2019-03-18T21:22:48.567Z,9.03
2019-03-18T21:25:17.175Z,7.80
2019-03-18T21:27:45.871Z,5.83
2019-03-18T21:30:19.738Z,5.50
2019-03-18T21:32:48.292Z,8.00
2019-03-18T21:35:16.891Z,5.43
2019-03-18T21:37:45.450Z,12.13
2019-03-18T21:40:18.283Z,10.83
2019-03-18T21:42:46.822Z,9.73
2019-03-18T21:45:17.628Z,7.17
2019-03-18T21:47:46.226Z,8.53
2019-03-18T21:50:16.145Z,7.57
2019-03-18T21:52:44.950Z,7.80
2019-03-18T21:55:14.246Z,7.90
2019-03-18T21:57:42.773Z,9.70
2019-03-18T22:00:16.622Z,7.93
2019-03-18T22:02:45.171Z,8.63
2019-03-18T22:05:13.864Z,8.50
2019-03-18T22:07:42.607Z,8.80
2019-03-18T22:10:13.745Z,8.90
2019-03-18T22:12:42.375Z,12.80
2019-03-18T22:15:12.782Z,9.27
2019-03-18T22:17:41.310Z,10.30
2019-03-18T22:20:14.573Z,10.13
2019-03-18T22:22:43.198Z,8.17
2019-03-18T22:25:13.064Z,9.63
2019-03-18T22:27:41.772Z,7.23
2019-03-18T22:30:15.319Z,8.53
2019-03-18T22:32:44.061Z,9.17
2019-03-18T22:35:12.782Z,9.43
2019-03-18T22:37:41.394Z,10.80
2019-03-18T22:40:15.783Z,10.23
2019-03-18T22:42:44.579Z,9.53
2019-03-18T22:45:14.772Z,11.27
2019-03-18T22:47:43.554Z,10.00
2019-03-18T22:50:13.612Z,10.37
2019-03-18T22:52:42.117Z,10.00
2019-03-18T22:55:14.753Z,13.87
2019-03-18T22:57:44.231Z,12.60
2019-03-18T23:00:22.582Z,11.03
2019-03-18T23:02:51.691Z,10.23
2019-03-18T23:05:20.233Z,12.07
2019-03-18T23:07:49.436Z,13.57
2019-03-18T23:10:18.536Z,10.07
2019-03-18T23:12:47.590Z,12.33
2019-03-18T23:15:16.349Z,10.73
2019-03-18T23:17:45.405Z,13.77
2019-03-18T23:20:14.522Z,9.27
2019-03-18T23:22:44.544Z,9.67
2019-03-18T23:25:13.136Z,7.70
2019-03-18T23:27:42.290Z,10.60
2019-03-18T23:30:15.349Z,10.70
2019-03-18T23:32:44.532Z,9.60
2019-03-18T23:35:13.830Z,9.27
2019-03-18T23:37:42.867Z,11.53
2019-03-18T23:40:13.432Z,9.47
2019-03-18T23:42:42.583Z,11.17
2019-03-18T23:45:12.463Z,9.70
2019-03-18T23:47:41.661Z,8.63
2019-03-18T23:50:14.826Z,9.23
2019-03-18T23:52:43.867Z,5.53
2019-03-18T23:55:18.846Z,9.13
2019-03-18T23:57:43.567Z,7.63
